Time;durP1;ratioP1;P1;durP2;ratioP2;P2;SDS_P1;SDS_P2;PMS_P1;PMS_P2;Temp;Humidity;BMP_temperature;BMP_pressure;BME280_temperature;BME280_humidity;BME280_pressure;Samples;Min_cycle;Max_cycle;Signal;HPM_P1;HPM_P2
2021/06/26 00:00:24;;;;;;;4.72;4.25;;;;;;;24.15;52.54;99681.94;4491301;31;33687;-86
2021/06/26 00:02:52;;;;;;;5.35;4.85;;;;;;;23.99;52.90;99681.81;4489543;31;35096;-86
2021/06/26 00:05:20;;;;;;;4.18;3.78;;;;;;;23.98;52.81;99680.97;4490762;31;33424;-87
2021/06/26 00:07:48;;;;;;;4.82;3.40;;;;;;;24.06;52.98;99680.19;4480098;31;34346;-87
2021/06/26 00:10:16;;;;;;;4.35;3.95;;;;;;;23.87;53.15;99685.75;4494986;31;34666;-87
2021/06/26 00:12:44;;;;;;;4.53;4.15;;;;;;;23.81;53.22;99692.62;4489666;31;34466;-87
2021/06/26 00:15:12;;;;;;;7.95;4.95;;;;;;;23.74;53.38;99694.25;4482445;32;34856;-88
2021/06/26 00:17:40;;;;;;;6.40;4.60;;;;;;;23.68;53.77;99701.06;4485132;31;32704;-88
2021/06/26 00:20:08;;;;;;;4.90;4.28;;;;;;;23.98;52.83;99699.84;4489415;31;34485;-87
2021/06/26 00:22:36;;;;;;;5.70;4.37;;;;;;;24.08;52.48;99702.47;4475881;31;34369;-88
2021/06/26 00:25:04;;;;;;;6.35;4.25;;;;;;;24.02;52.67;99697.66;4489573;31;34321;-88
2021/06/26 00:27:32;;;;;;;7.45;3.90;;;;;;;23.66;53.70;99708.47;4493027;31;33143;-87
2021/06/26 00:30:00;;;;;;;4.80;4.32;;;;;;;23.76;53.41;99703.84;4491431;31;34528;-88
2021/06/26 00:32:28;;;;;;;5.05;4.55;;;;;;;24.06;52.57;99707.16;4489353;31;33683;-88
2021/06/26 00:35:04;;;;;;;4.62;4.22;;;;;;;24.02;52.70;99703.06;4487690;31;35167;-87
2021/06/26 00:37:32;;;;;;;6.87;4.62;;;;;;;23.85;53.29;99712.03;4486315;31;33943;-87
2021/06/26 00:39:59;;;;;;;5.57;4.68;;;;;;;24.01;52.81;99712.16;4479539;31;33850;-87
2021/06/26 00:42:35;;;;;;;5.05;4.18;;;;;;;23.92;53.09;99715.78;4478463;31;35194;-87
2021/06/26 00:45:08;;;;;;;5.00;4.18;;;;;;;23.84;53.33;99726.53;4491768;31;34317;-87
2021/06/26 00:47:37;;;;;;;5.07;4.57;;;;;;;23.85;53.36;99733.59;4505487;31;33170;-87
2021/06/26 00:50:18;;;;;;;4.93;4.43;;;;;;;23.83;53.44;99724.81;4489146;31;33634;-87
2021/06/26 00:52:47;;;;;;;5.37;4.87;;;;;;;23.57;54.25;99730.09;4485773;31;34875;-87
2021/06/26 00:55:18;;;;;;;6.25;5.47;;;;;;;23.55;54.39;99721.28;4476506;31;34121;-87
2021/06/26 00:57:54;;;;;;;5.32;4.75;;;;;;;23.36;55.08;99727.63;4480564;31;32958;-87
2021/06/26 01:00:23;;;;;;;5.62;4.80;;;;;;;23.52;54.58;99722.44;4477930;32;33997;-87
2021/06/26 01:02:51;;;;;;;5.50;4.80;;;;;;;23.45;54.76;99716.84;4483379;31;34513;-87
2021/06/26 01:05:19;;;;;;;5.97;4.97;;;;;;;23.66;54.22;99724.66;4478278;31;34177;-87
2021/06/26 01:07:47;;;;;;;5.95;4.65;;;;;;;23.50;54.71;99728.00;4469730;31;35436;-88
2021/06/26 01:10:15;;;;;;;5.50;5.00;;;;;;;23.44;55.09;99717.81;4467699;31;34645;-87
2021/06/26 01:12:43;;;;;;;5.40;4.68;;;;;;;23.46;54.89;99717.69;4472122;31;32921;-87
2021/06/26 01:15:15;;;;;;;5.43;4.90;;;;;;;23.18;56.04;99720.38;4469798;31;35389;-87
2021/06/26 01:17:43;;;;;;;5.35;4.85;;;;;;;23.44;55.35;99714.25;4466891;31;34406;-88
2021/06/26 01:20:11;;;;;;;5.90;5.30;;;;;;;23.07;56.44;99723.25;4484682;31;35502;-88
2021/06/26 01:22:44;;;;;;;5.82;5.25;;;;;;;23.21;55.84;99709.28;4480604;32;33800;-89
2021/06/26 01:25:22;;;;;;;7.30;4.85;;;;;;;23.12;56.16;99718.28;4487435;31;34687;-88
2021/06/26 01:27:51;;;;;;;5.68;4.80;;;;;;;22.97;56.65;99720.59;4469968;31;32295;-87
2021/06/26 01:30:26;;;;;;;5.90;4.97;;;;;;;23.43;55.28;99712.56;4465602;31;34449;-87
2021/06/26 01:32:54;;;;;;;6.15;5.40;;;;;;;23.36;55.59;99717.75;4470175;31;34080;-88
2021/06/26 01:35:22;;;;;;;5.25;4.85;;;;;;;23.27;55.93;99713.25;4473309;31;35324;-88
2021/06/26 01:37:50;;;;;;;7.28;5.25;;;;;;;23.16;56.20;99711.59;4470910;31;34004;-88
2021/06/26 01:40:21;;;;;;;5.62;5.05;;;;;;;22.90;56.97;99721.34;4467766;31;34126;-88
2021/06/26 01:42:50;;;;;;;5.82;5.20;;;;;;;23.02;56.63;99725.53;4464714;31;35669;-88
2021/06/26 01:45:21;;;;;;;6.85;5.20;;;;;;;23.11;56.19;99719.25;4474917;31;34441;-88
2021/06/26 01:47:57;;;;;;;8.95;5.70;;;;;;;22.78;57.47;99723.34;4466771;31;34040;-87
2021/06/26 01:50:27;;;;;;;6.57;5.90;;;;;;;23.04;56.66;99726.25;4482997;31;34199;-87
2021/06/26 01:52:55;;;;;;;7.20;5.37;;;;;;;22.70;57.80;99732.16;4476625;31;35504;-87
2021/06/26 01:55:23;;;;;;;8.23;5.97;;;;;;;22.83;57.51;99741.75;4475089;31;33930;-87
2021/06/26 01:57:53;;;;;;;6.75;5.45;;;;;;;22.91;57.05;99749.97;4468883;31;33662;-87
2021/06/26 02:00:22;;;;;;;6.70;6.00;;;;;;;22.95;57.06;99746.00;4460825;32;34557;-87
2021/06/26 02:02:51;;;;;;;7.00;6.30;;;;;;;23.24;56.12;99754.78;4475160;32;34187;-87
2021/06/26 02:05:22;;;;;;;5.60;5.10;;;;;;;23.03;57.10;99753.34;4467990;31;34401;-87
2021/06/26 02:07:51;;;;;;;6.55;5.85;;;;;;;23.05;56.96;99746.81;4467180;31;34737;-87
2021/06/26 02:10:19;;;;;;;11.43;6.30;;;;;;;22.99;56.91;99748.25;4479253;31;33869;-87
2021/06/26 02:12:47;;;;;;;8.10;6.62;;;;;;;22.64;58.38;99756.09;4465524;31;35320;-87
2021/06/26 02:15:30;;;;;;;7.45;5.57;;;;;;;22.60;58.38;99768.16;4483779;31;33868;-87
2021/06/26 02:17:58;;;;;;;7.30;5.78;;;;;;;22.82;57.81;99769.66;4471812;31;34058;-88
2021/06/26 02:20:26;;;;;;;7.93;6.22;;;;;;;22.79;57.82;99756.47;4474512;31;33620;-87
2021/06/26 02:23:09;;;;;;;10.68;6.47;;;;;;;22.71;58.26;99759.94;4478215;31;33726;-87
2021/06/26 02:25:38;;;;;;;8.18;7.30;;;;;;;22.72;58.37;99759.78;4483996;31;33654;-87
2021/06/26 02:28:06;;;;;;;9.25;6.82;;;;;;;22.67;58.53;99758.50;4481315;31;32693;-89
2021/06/26 02:30:40;;;;;;;7.87;6.53;;;;;;;22.61;58.80;99756.41;4495477;31;33671;-88
2021/06/26 02:33:08;;;;;;;8.90;7.10;;;;;;;22.92;57.79;99759.75;4477223;31;35000;-88
2021/06/26 02:35:36;;;;;;;7.80;7.00;;;;;;;22.72;58.49;99765.16;4477210;32;34838;-88
2021/06/26 02:38:04;;;;;;;8.40;6.37;;;;;;;22.99;57.61;99777.03;4484285;31;34483;-89
2021/06/26 02:40:32;;;;;;;7.87;7.12;;;;;;;23.04;57.56;99788.19;4477165;32;33587;-88
2021/06/26 02:43:01;;;;;;;9.35;6.00;;;;;;;23.18;57.17;99789.56;4489823;31;33468;-88
2021/06/26 02:45:29;;;;;;;9.90;7.07;;;;;;;22.83;58.10;99784.81;4470195;32;34867;-89
2021/06/26 02:47:57;;;;;;;7.18;6.45;;;;;;;22.84;58.37;99786.53;4480628;31;32028;-88
2021/06/26 02:50:25;;;;;;;8.15;6.75;;;;;;;22.92;58.18;99786.66;4464396;31;34064;-87
2021/06/26 02:52:52;;;;;;;7.68;6.75;;;;;;;22.68;58.80;99782.59;4492992;31;34364;-87
2021/06/26 02:55:20;;;;;;;7.30;6.60;;;;;;;22.90;57.98;99781.44;4492031;31;34171;-87
2021/06/26 02:57:48;;;;;;;11.85;6.80;;;;;;;22.83;58.13;99784.81;4479446;31;33129;-87
2021/06/26 03:00:16;;;;;;;7.28;6.55;;;;;;;22.94;57.93;99792.78;4461355;32;35671;-87
2021/06/26 03:02:44;;;;;;;11.20;7.72;;;;;;;22.77;58.49;99791.62;4462671;31;32849;-87
2021/06/26 03:05:12;;;;;;;8.70;6.68;;;;;;;22.77;58.36;99788.09;4492234;31;32919;-86
2021/06/26 03:07:47;;;;;;;7.70;6.37;;;;;;;22.65;58.83;99782.88;4481063;31;34106;-86
2021/06/26 03:10:15;;;;;;;7.70;6.28;;;;;;;22.55;59.18;99787.44;4474205;31;33306;-86
2021/06/26 03:12:43;;;;;;;10.77;6.47;;;;;;;22.39;59.82;99789.84;4495629;31;34608;-86
2021/06/26 03:15:12;;;;;;;10.45;6.95;;;;;;;22.49;59.25;99788.00;4480344;31;32771;-89
2021/06/26 03:18:20;;;;;;;7.50;6.75;;;;;;;22.31;59.97;99792.41;4475178;31;34566;-90
2021/06/26 03:20:55;;;;;;;7.57;6.20;;;;;;;22.51;59.36;99790.56;4465298;31;34649;-88
2021/06/26 03:23:25;;;;;;;7.62;6.25;;;;;;;22.38;59.67;99790.84;4478058;31;33888;-87
2021/06/26 03:25:53;;;;;;;7.30;6.53;;;;;;;22.49;59.33;99793.38;4472296;31;34882;-87
2021/06/26 03:28:21;;;;;;;7.07;6.37;;;;;;;22.44;59.50;99790.28;4492558;31;33088;-88
2021/06/26 03:30:49;;;;;;;8.20;6.32;;;;;;;22.34;59.93;99794.81;4479501;31;34581;-88
2021/06/26 03:33:17;;;;;;;8.10;6.62;;;;;;;22.33;59.99;99791.28;4478923;31;35132;-88
2021/06/26 03:35:45;;;;;;;10.75;7.30;;;;;;;22.28;60.00;99785.47;4479352;31;34357;-92
2021/06/26 03:38:21;;;;;;;6.82;6.15;;;;;;;22.07;60.74;99782.03;4494102;31;33256;-89
2021/06/26 03:40:54;;;;;;;7.90;6.50;;;;;;;22.27;60.31;99789.16;4480052;31;34140;-89
2021/06/26 03:43:22;;;;;;;7.68;5.35;;;;;;;22.33;59.99;99791.28;4491228;31;33786;-89
2021/06/26 03:45:57;;;;;;;7.03;5.57;;;;;;;22.16;60.88;99794.66;4475300;31;35277;-89
2021/06/26 03:48:26;;;;;;;7.82;6.07;;;;;;;22.20;60.82;99793.41;4467722;31;34649;-89
2021/06/26 03:50:58;;;;;;;6.28;5.68;;;;;;;22.19;60.79;99792.56;4467476;31;34300;-89
2021/06/26 03:53:28;;;;;;;7.07;6.30;;;;;;;22.47;59.87;99792.69;4479528;31;35568;-89
2021/06/26 03:56:00;;;;;;;10.32;6.55;;;;;;;22.71;59.00;99793.06;4477982;31;33415;-89
2021/06/26 03:58:34;;;;;;;9.80;6.37;;;;;;;22.75;58.52;99791.78;4478771;31;34163;-89
2021/06/26 04:01:03;;;;;;;7.85;6.12;;;;;;;22.82;58.65;99785.81;4466568;31;34383;-89
2021/06/26 04:03:33;;;;;;;8.45;6.05;;;;;;;23.12;57.62;99790.13;4478703;31;33277;-89
2021/06/26 04:06:01;;;;;;;7.65;6.50;;;;;;;22.98;57.99;99789.63;4465687;31;34096;-89
2021/06/26 04:08:30;;;;;;;6.85;6.07;;;;;;;23.31;57.21;99789.22;4463794;31;33950;-90
2021/06/26 04:11:00;;;;;;;9.95;6.28;;;;;;;23.45;56.78;99786.00;4480092;31;34491;-87
2021/06/26 04:13:28;;;;;;;10.85;6.53;;;;;;;23.41;56.73;99785.50;4490122;31;33732;-87
2021/06/26 04:15:56;;;;;;;7.53;6.68;;;;;;;23.63;56.19;99773.44;4461171;31;34886;-88
2021/06/26 04:18:24;;;;;;;7.12;6.43;;;;;;;23.55;56.04;99780.56;4467013;31;34058;-88
2021/06/26 04:20:51;;;;;;;10.35;6.50;;;;;;;23.46;56.69;99777.81;4488318;31;33687;-87
2021/06/26 04:23:19;;;;;;;9.27;7.20;;;;;;;23.37;56.75;99789.47;4461135;31;34333;-87
2021/06/26 04:25:48;;;;;;;10.95;7.15;;;;;;;23.24;57.26;99784.44;4461852;31;34017;-89
2021/06/26 04:28:16;;;;;;;8.25;6.60;;;;;;;23.62;56.02;99771.75;4473075;31;33719;-86
2021/06/26 04:30:44;;;;;;;7.70;6.25;;;;;;;23.71;55.82;99776.25;4467853;32;34579;-86
2021/06/26 04:33:12;;;;;;;9.27;6.62;;;;;;;23.66;55.93;99767.78;4466194;31;34651;-86
2021/06/26 04:35:40;;;;;;;10.80;7.72;;;;;;;23.31;57.16;99773.91;4466099;32;34105;-86
2021/06/26 04:38:07;;;;;;;9.07;7.53;;;;;;;23.06;57.73;99769.19;4466353;31;35092;-86
2021/06/26 04:40:35;;;;;;;8.73;7.40;;;;;;;23.50;56.52;99757.66;4486995;31;34981;-87
2021/06/26 04:43:04;;;;;;;10.60;7.72;;;;;;;23.73;55.93;99763.47;4481716;31;33846;-87
2021/06/26 04:45:32;;;;;;;8.93;7.30;;;;;;;23.42;56.88;99765.63;4478894;31;34498;-86
2021/06/26 04:48:01;;;;;;;8.98;7.25;;;;;;;23.91;55.37;99760.78;4495188;31;33964;-86
2021/06/26 04:50:29;;;;;;;10.38;7.70;;;;;;;23.98;55.24;99766.44;4472698;32;33128;-87
2021/06/26 04:52:58;;;;;;;10.30;7.68;;;;;;;23.92;54.82;99762.47;4495419;31;34424;-86
2021/06/26 04:55:26;;;;;;;11.65;8.70;;;;;;;24.11;54.44;99766.88;4459700;32;35076;-86
2021/06/26 04:57:54;;;;;;;9.38;8.48;;;;;;;23.95;54.81;99772.13;4470240;32;33815;-87
2021/06/26 05:00:22;;;;;;;9.85;8.75;;;;;;;24.14;54.25;99771.13;4467822;31;34426;-87
2021/06/26 05:02:50;;;;;;;11.32;8.40;;;;;;;24.07;54.50;99768.22;4462589;31;35110;-87
2021/06/26 05:05:17;;;;;;;12.20;8.40;;;;;;;24.25;54.27;99768.19;4469267;31;33942;-89
2021/06/26 05:07:46;;;;;;;12.02;8.27;;;;;;;24.06;55.20;99763.78;4468544;31;33918;-89
2021/06/26 05:10:34;;;;;;;9.32;8.38;;;;;;;24.39;54.04;99766.81;4478840;31;33843;-90
2021/06/26 05:13:04;;;;;;;9.18;8.15;;;;;;;24.52;53.40;99765.41;4475698;31;34818;-88
2021/06/26 05:15:32;;;;;;;11.98;8.45;;;;;;;24.49;53.78;99775.66;4488097;31;35030;-88
2021/06/26 05:18:01;;;;;;;9.70;8.35;;;;;;;24.33;54.34;99764.72;4488048;31;33925;-88
2021/06/26 05:20:28;;;;;;;9.57;8.30;;;;;;;24.68;53.68;99780.03;4488076;31;35496;-88
2021/06/26 05:22:57;;;;;;;11.88;8.30;;;;;;;24.90;52.45;99771.41;4472764;32;34249;-88
2021/06/26 05:25:25;;;;;;;12.32;7.60;;;;;;;24.77;52.84;99768.28;4463496;32;34297;-89
2021/06/26 05:27:54;;;;;;;9.55;6.80;;;;;;;24.86;52.16;99770.03;4472657;32;33652;-89
2021/06/26 05:30:24;;;;;;;8.27;7.10;;;;;;;25.24;51.15;99770.59;4485800;31;33243;-88
2021/06/26 05:32:53;;;;;;;12.75;7.50;;;;;;;25.25;50.73;99762.31;4474267;31;35120;-89
2021/06/26 05:35:20;;;;;;;8.50;7.57;;;;;;;25.05;51.30;99771.66;4479400;32;33647;-89
2021/06/26 05:37:48;;;;;;;8.00;7.18;;;;;;;25.20;51.30;99764.66;4481441;31;33264;-88
2021/06/26 05:40:16;;;;;;;8.82;7.82;;;;;;;25.30;51.01;99772.63;4470776;31;35182;-88
2021/06/26 05:42:44;;;;;;;8.40;7.43;;;;;;;25.57;51.21;99768.88;4472224;31;35500;-90
2021/06/26 05:45:51;;;;;;;11.45;8.13;;;;;;;25.47;50.59;99776.25;4389366;32;34295;-88
2021/06/26 05:48:23;;;;;;;9.00;8.10;;;;;;;25.46;50.83;99783.53;4392239;32;32806;-85
2021/06/26 05:50:51;;;;;;;8.75;7.90;;;;;;;25.46;50.87;99788.09;4388963;32;34531;-85
2021/06/26 05:53:19;;;;;;;11.68;7.97;;;;;;;25.78;49.86;99790.94;4384257;32;34933;-85
2021/06/26 05:55:56;;;;;;;10.20;8.27;;;;;;;25.68;50.08;99784.78;4379836;32;33869;-85
2021/06/26 05:58:33;;;;;;;9.00;7.60;;;;;;;25.83;50.08;99793.16;4391518;32;31836;-85
2021/06/26 06:01:00;;;;;;;9.52;8.38;;;;;;;26.05;49.26;99800.63;4390414;32;33836;-85
2021/06/26 06:03:29;;;;;;;9.50;8.50;;;;;;;25.87;49.19;99794.50;4387383;32;35226;-85
2021/06/26 06:05:56;;;;;;;13.07;8.32;;;;;;;25.75;49.73;99796.66;4392155;32;33456;-85
2021/06/26 06:08:24;;;;;;;11.35;8.77;;;;;;;25.65;50.20;99795.94;4391329;32;34785;-85
2021/06/26 06:10:52;;;;;;;8.88;7.90;;;;;;;25.50;50.32;99797.56;4401304;32;34607;-85
2021/06/26 06:13:21;;;;;;;9.32;8.15;;;;;;;25.62;49.85;99801.66;4393978;32;33953;-86
2021/06/26 06:15:50;;;;;;;8.93;8.02;;;;;;;25.87;49.66;99804.47;4387144;32;33572;-86
2021/06/26 06:18:20;;;;;;;10.75;8.48;;;;;;;25.73;50.52;99804.09;4385009;32;33876;-85
2021/06/26 06:20:48;;;;;;;9.63;8.35;;;;;;;25.76;49.98;99808.34;4386429;32;34371;-85
2021/06/26 06:23:15;;;;;;;11.20;9.10;;;;;;;25.87;49.26;99804.47;4387580;32;34267;-85
2021/06/26 06:25:44;;;;;;;10.85;8.48;;;;;;;25.87;49.68;99799.91;4388059;32;33350;-86
2021/06/26 06:28:11;;;;;;;9.50;7.95;;;;;;;25.89;50.23;99807.88;4390427;32;33034;-87
2021/06/26 06:30:39;;;;;;;10.50;7.65;;;;;;;26.12;48.98;99810.78;4375157;32;33521;-86
2021/06/26 06:33:07;;;;;;;8.60;7.32;;;;;;;25.88;49.18;99814.31;4388912;32;33701;-86
2021/06/26 06:35:36;;;;;;;8.45;7.55;;;;;;;26.15;48.12;99811.28;4400029;32;33353;-85
2021/06/26 06:38:04;;;;;;;10.52;7.30;;;;;;;25.98;50.04;99812.28;4387137;32;31563;-84
2021/06/26 06:40:32;;;;;;;8.65;7.70;;;;;;;26.39;47.29;99824.00;4390377;32;34180;-82
2021/06/26 06:42:59;;;;;;;10.13;8.88;;;;;;;26.41;47.68;99818.44;4390722;32;34125;-83
2021/06/26 06:45:27;;;;;;;9.52;7.50;;;;;;;26.53;46.87;99826.06;4419196;32;34610;-83
2021/06/26 06:47:56;;;;;;;8.05;7.25;;;;;;;26.49;46.02;99819.31;4409286;32;33202;-83
2021/06/26 06:50:24;;;;;;;7.80;7.10;;;;;;;26.55;47.33;99831.34;4396635;32;33517;-83
2021/06/26 06:52:51;;;;;;;10.27;6.80;;;;;;;26.86;45.53;99817.06;4421237;32;33996;-83
2021/06/26 06:55:19;;;;;;;11.85;7.40;;;;;;;26.84;45.10;99821.84;4393505;32;34962;-82
2021/06/26 06:57:47;;;;;;;7.68;6.97;;;;;;;26.76;45.37;99828.09;4394530;32;33348;-83
2021/06/26 07:00:15;;;;;;;8.68;7.53;;;;;;;26.68;45.82;99826.25;4397212;32;32454;-83
2021/06/26 07:02:43;;;;;;;12.93;7.18;;;;;;;27.09;45.57;99823.50;4409514;32;33712;-83
2021/06/26 07:05:12;;;;;;;11.38;7.85;;;;;;;26.93;45.28;99829.78;4396986;32;34081;-83
2021/06/26 07:07:40;;;;;;;10.77;7.90;;;;;;;27.09;44.63;99828.09;4409135;32;33614;-83
2021/06/26 07:10:08;;;;;;;12.15;8.50;;;;;;;26.84;45.29;99827.25;4396822;32;33450;-83
2021/06/26 07:12:36;;;;;;;9.27;7.30;;;;;;;26.90;45.21;99835.53;4408952;32;34223;-83
2021/06/26 07:15:05;;;;;;;9.93;8.02;;;;;;;26.78;46.48;99845.03;4421731;32;33342;-83
2021/06/26 07:17:33;;;;;;;12.70;8.70;;;;;;;26.77;46.61;99846.03;4397094;32;32754;-83
2021/06/26 07:20:01;;;;;;;8.70;7.45;;;;;;;26.65;46.75;99840.13;4408630;32;33395;-83
2021/06/26 07:22:29;;;;;;;12.27;8.32;;;;;;;27.22;45.87;99842.78;4396544;32;34670;-83
2021/06/26 07:24:58;;;;;;;8.60;7.70;;;;;;;27.35;45.35;99833.25;4408645;32;34129;-83
2021/06/26 07:27:26;;;;;;;8.75;7.40;;;;;;;27.31;45.13;99839.03;4421815;32;33340;-83
2021/06/26 07:29:53;;;;;;;10.85;8.57;;;;;;;27.59;45.51;99841.31;4396144;32;34203;-83
2021/06/26 07:32:21;;;;;;;9.15;8.05;;;;;;;27.73;43.97;99829.75;4408507;32;33814;-83
2021/06/26 07:34:49;;;;;;;8.93;7.75;;;;;;;27.91;44.76;99834.91;4393750;32;34564;-83
2021/06/26 07:37:17;;;;;;;8.85;7.47;;;;;;;27.85;43.71;99834.78;4408574;32;34050;-83
2021/06/26 07:39:45;;;;;;;11.30;8.35;;;;;;;28.02;42.96;99825.53;4396385;32;33235;-83
2021/06/26 07:42:13;;;;;;;9.70;8.70;;;;;;;28.18;43.11;99828.13;4408482;32;33864;-83
2021/06/26 07:44:41;;;;;;;9.32;8.35;;;;;;;28.27;42.37;99823.50;4408778;32;34412;-83
2021/06/26 07:47:09;;;;;;;9.48;8.52;;;;;;;27.99;42.41;99825.87;4408099;32;34067;-83
2021/06/26 07:49:36;;;;;;;9.98;8.43;;;;;;;28.18;41.45;99822.72;4408712;32;34479;-84
2021/06/26 07:52:04;;;;;;;10.85;7.90;;;;;;;28.70;41.49;99819.28;4405964;32;33743;-83
2021/06/26 07:54:32;;;;;;;10.85;8.98;;;;;;;28.53;41.25;99825.87;4433342;32;33601;-84
2021/06/26 07:57:01;;;;;;;9.15;8.23;;;;;;;28.79;39.92;99825.47;4396353;32;34132;-83
2021/06/26 07:59:29;;;;;;;10.95;8.57;;;;;;;28.74;41.06;99820.59;4395909;32;35686;-83
2021/06/26 08:01:56;;;;;;;11.10;7.97;;;;;;;28.69;42.00;99814.88;4396118;32;34730;-83
2021/06/26 08:04:25;;;;;;;9.73;8.07;;;;;;;28.59;39.83;99819.72;4395702;32;35810;-83
2021/06/26 08:06:52;;;;;;;9.80;6.85;;;;;;;28.70;39.97;99819.28;4422448;32;33578;-83
2021/06/26 08:09:20;;;;;;;9.05;7.95;;;;;;;28.90;39.17;99824.19;4397379;32;33847;-84
2021/06/26 08:11:48;;;;;;;9.77;8.13;;;;;;;28.60;39.97;99820.56;4396269;32;33746;-83
2021/06/26 08:14:16;;;;;;;9.27;8.38;;;;;;;28.67;41.55;99814.19;4409939;32;34111;-83
2021/06/26 08:16:43;;;;;;;8.52;7.55;;;;;;;28.82;41.44;99811.53;4422422;32;32831;-83
2021/06/26 08:19:12;;;;;;;8.40;7.60;;;;;;;28.60;40.09;99817.84;4397779;32;34549;-83
2021/06/26 08:21:41;;;;;;;12.70;7.45;;;;;;;28.53;40.76;99817.72;4397752;32;34136;-83
2021/06/26 08:24:09;;;;;;;9.48;7.05;;;;;;;28.60;40.21;99813.25;4422694;32;33533;-83
2021/06/26 08:26:55;;;;;;;9.32;6.78;;;;;;;28.93;39.45;99815.66;4424358;32;33021;-83
2021/06/26 08:29:23;;;;;;;7.62;6.72;;;;;;;29.04;39.10;99812.53;4410147;32;34599;-84
2021/06/26 08:31:50;;;;;;;6.78;5.95;;;;;;;29.18;37.66;99805.41;4410061;32;34136;-84
2021/06/26 08:34:18;;;;;;;7.25;6.55;;;;;;;29.16;36.91;99802.87;4422767;32;33299;-84
2021/06/26 08:36:46;;;;;;;6.95;6.35;;;;;;;29.31;37.44;99803.72;4397771;32;33985;-84
2021/06/26 08:39:15;;;;;;;7.65;6.25;;;;;;;29.56;37.08;99804.28;4422688;32;33701;-84
2021/06/26 08:41:45;;;;;;;7.50;6.80;;;;;;;29.82;37.48;99803.78;4397431;32;35741;-84
2021/06/26 08:44:17;;;;;;;7.43;6.18;;;;;;;29.82;36.63;99792.91;4409283;32;34255;-84
2021/06/26 08:46:49;;;;;;;9.65;6.95;;;;;;;30.08;36.87;99810.56;4385469;32;34146;-84
2021/06/26 08:49:18;;;;;;;6.85;5.85;;;;;;;30.25;35.33;99806.59;4397137;32;33601;-84
2021/06/26 08:51:46;;;;;;;7.50;6.72;;;;;;;30.26;35.65;99808.25;4397672;32;35225;-84
2021/06/26 08:54:19;;;;;;;7.55;6.85;;;;;;;30.25;35.36;99803.87;4397016;32;33392;-84
2021/06/26 08:56:48;;;;;;;9.63;6.82;;;;;;;29.89;36.82;99803.00;4409312;32;34145;-84
2021/06/26 08:59:16;;;;;;;10.60;8.15;;;;;;;30.21;35.73;99801.72;4396796;32;35359;-84
2021/06/26 09:01:45;;;;;;;7.12;6.47;;;;;;;30.49;35.76;99796.34;4422961;32;33145;-84
2021/06/26 09:04:16;;;;;;;12.30;6.95;;;;;;;30.56;35.76;99794.50;4407426;32;34612;-84
2021/06/26 09:06:46;;;;;;;7.45;6.70;;;;;;;30.68;33.87;99798.38;4409944;32;35151;-84
2021/06/26 09:09:15;;;;;;;7.37;6.23;;;;;;;30.55;35.94;99793.66;4409538;32;34563;-84
2021/06/26 09:11:42;;;;;;;8.65;6.87;;;;;;;30.63;35.98;99800.84;4396928;32;34219;-84
2021/06/26 09:14:20;;;;;;;7.95;7.15;;;;;;;30.66;35.56;99792.25;4409179;32;33967;-84
2021/06/26 09:16:52;;;;;;;7.07;6.35;;;;;;;30.88;34.60;99789.53;4381417;32;33637;-84
2021/06/26 09:19:20;;;;;;;7.07;6.25;;;;;;;31.14;33.63;99781.50;4394907;32;34362;-84
2021/06/26 09:22:02;;;;;;;10.20;6.60;;;;;;;31.11;33.83;99784.66;4397383;32;33480;-84
2021/06/26 09:24:46;;;;;;;9.57;7.18;;;;;;;30.91;34.54;99794.56;4396945;32;34859;-84
2021/06/26 09:27:17;;;;;;;8.02;7.22;;;;;;;31.11;34.30;99787.37;4422423;32;33218;-84
2021/06/26 09:29:49;;;;;;;9.90;7.50;;;;;;;30.90;33.92;99784.72;4396666;32;33661;-84
2021/06/26 09:32:25;;;;;;;9.88;7.10;;;;;;;30.74;34.71;99781.25;4395875;32;33786;-84
2021/06/26 09:34:54;;;;;;;9.75;6.43;;;;;;;31.34;33.64;99787.97;4404235;32;34298;-84
2021/06/26 09:37:28;;;;;;;8.52;7.05;;;;;;;30.80;34.17;99779.63;4409314;32;34397;-84
2021/06/26 09:39:58;;;;;;;5.95;5.43;;;;;;;31.04;32.10;99783.75;4396958;32;33594;-84
2021/06/26 09:42:29;;;;;;;8.60;6.28;;;;;;;31.05;32.20;99782.72;4384501;32;34920;-84
2021/06/26 09:45:03;;;;;;;7.78;6.65;;;;;;;31.23;31.51;99785.75;4422309;32;33370;-84
2021/06/26 09:47:37;;;;;;;8.32;6.62;;;;;;;30.60;34.10;99776.72;4397662;32;33008;-84
2021/06/26 09:50:17;;;;;;;8.40;7.60;;;;;;;31.14;33.78;99775.22;4407415;32;33322;-84
2021/06/26 09:52:47;;;;;;;7.40;6.70;;;;;;;31.43;32.30;99774.13;4393877;32;34221;-84
2021/06/26 09:55:33;;;;;;;8.65;7.62;;;;;;;31.26;32.92;99777.19;4420333;32;34083;-84
2021/06/26 09:58:16;;;;;;;8.45;7.25;;;;;;;30.96;33.00;99782.06;4409179;32;33747;-84
2021/06/26 10:00:46;;;;;;;6.35;5.78;;;;;;;31.47;31.86;99778.16;4421699;32;34973;-84
2021/06/26 10:03:18;;;;;;;7.07;6.05;;;;;;;31.70;31.11;99770.47;4407599;32;34708;-84
2021/06/26 10:05:46;;;;;;;;;;;;;;;31.20;32.16;99769.81;4394465;32;33565;-84
2021/06/26 10:08:16;;;;;;;6.37;4.85;;;;;;;31.22;32.49;99778.63;4435029;32;33829;-84
2021/06/26 10:10:49;;;;;;;16.77;7.18;;;;;;;31.59;30.21;99777.38;4396983;32;34794;-84
2021/06/26 10:13:17;;;;;;;10.25;6.80;;;;;;;31.72;30.01;99771.13;4409785;32;35819;-84
2021/06/26 10:15:46;;;;;;;5.87;5.35;;;;;;;32.13;29.51;99759.28;4422129;32;33829;-84
2021/06/26 10:18:14;;;;;;;6.93;5.62;;;;;;;32.08;30.73;99767.25;4409334;32;32991;-84
2021/06/26 10:20:43;;;;;;;7.78;5.30;;;;;;;31.98;29.74;99758.63;4409509;32;34359;-84
2021/06/26 10:23:10;;;;;;;7.95;5.75;;;;;;;31.83;30.12;99765.09;4409551;32;33792;-84
2021/06/26 10:25:40;;;;;;;6.45;5.85;;;;;;;31.80;29.58;99762.75;4409488;32;34358;-84
2021/06/26 10:28:13;;;;;;;6.93;6.28;;;;;;;31.75;30.38;99759.78;4394488;32;35135;-84
2021/06/26 10:30:41;;;;;;;6.97;6.35;;;;;;;31.75;30.89;99759.78;4409627;32;34710;-84
2021/06/26 10:33:10;;;;;;;8.82;6.43;;;;;;;31.35;31.07;99767.81;4396715;32;33702;-84
2021/06/26 10:35:50;;;;;;;11.35;6.22;;;;;;;31.31;32.27;99765.72;4396791;32;35417;-84
2021/06/26 10:38:18;;;;;;;7.37;6.50;;;;;;;31.72;30.55;99762.94;4409117;32;32551;-84
2021/06/26 10:40:54;;;;;;;7.43;5.80;;;;;;;31.57;31.01;99762.22;4421285;32;34729;-84
2021/06/26 10:43:30;;;;;;;6.78;6.03;;;;;;;31.55;31.22;99764.34;4407071;32;33793;-85
2021/06/26 10:46:12;;;;;;;6.07;5.50;;;;;;;31.66;31.92;99755.56;4430779;32;33280;-84
2021/06/26 10:49:04;;;;;;;6.68;6.05;;;;;;;31.98;29.38;99766.81;4396211;32;34282;-84
2021/06/26 10:51:37;;;;;;;7.20;6.50;;;;;;;32.36;29.52;99756.16;4396924;32;34210;-86
2021/06/26 10:54:17;;;;;;;6.87;6.28;;;;;;;32.32;29.83;99761.19;4420051;32;33636;-86
2021/06/26 10:56:47;;;;;;;6.72;5.97;;;;;;;32.37;29.09;99755.97;4396638;32;34352;-86
2021/06/26 10:59:17;;;;;;;7.43;6.00;;;;;;;32.68;27.88;99762.69;4394560;32;33138;-86
2021/06/26 11:01:53;;;;;;;4.55;4.15;;;;;;;32.85;27.62;99769.41;4417349;32;33651;-86
2021/06/26 11:04:22;;;;;;;5.68;5.18;;;;;;;32.61;26.15;99772.78;4409972;32;34730;-86
2021/06/26 11:07:01;;;;;;;6.57;5.07;;;;;;;33.00;26.84;99765.63;4422142;32;34930;-88
2021/06/26 11:09:36;;;;;;;5.40;4.90;;;;;;;33.34;26.72;99759.84;4422685;32;33086;-87
2021/06/26 11:12:17;;;;;;;6.10;5.53;;;;;;;33.06;27.59;99759.31;4409989;32;33751;-93
2021/06/26 11:14:56;;;;;;;5.57;5.07;;;;;;;33.06;28.36;99760.13;4409703;32;35516;-89
2021/06/26 11:17:53;;;;;;;5.95;5.35;;;;;;;33.04;27.06;99755.94;4392519;32;34350;-87
2021/06/26 11:20:22;;;;;;;5.37;4.82;;;;;;;33.02;25.75;99742.47;4402615;32;33053;-87
2021/06/26 11:22:54;;;;;;;4.75;4.35;;;;;;;32.52;26.93;99757.63;4408748;32;35364;-87
2021/06/26 11:25:28;;;;;;;6.18;5.32;;;;;;;32.45;27.65;99746.72;4391531;32;34851;-87
2021/06/26 11:28:12;;;;;;;5.93;5.32;;;;;;;32.62;27.80;99749.87;4406179;32;34567;-87
2021/06/26 11:30:43;;;;;;;6.97;6.05;;;;;;;32.84;28.80;99747.72;4415353;32;32939;-87
2021/06/26 11:33:11;;;;;;;12.75;6.47;;;;;;;32.91;27.97;99742.31;4407144;32;33445;-86
2021/06/26 11:35:43;;;;;;;6.03;5.50;;;;;;;33.01;27.96;99739.97;4402477;32;33581;-87
2021/06/26 11:38:19;;;;;;;5.43;4.90;;;;;;;32.69;27.22;99741.66;4417568;32;33872;-87
2021/06/26 11:40:47;;;;;;;6.00;5.07;;;;;;;33.32;26.67;99736.47;4405842;32;34336;-87
2021/06/26 11:43:15;;;;;;;6.45;5.62;;;;;;;33.24;26.39;99734.84;4381598;32;34420;-87
2021/06/26 11:45:47;;;;;;;7.22;6.53;;;;;;;33.64;27.44;99737.41;4389526;32;33653;-87